Time;durP1;ratioP1;P1;durP2;ratioP2;P2;SDS_P1;SDS_P2;PMS_P1;PMS_P2;Temp;Humidity;BMP_temperature;BMP_pressure;BME280_temperature;BME280_humidity;BME280_pressure;Samples;Min_cycle;Max_cycle;Signal;HPM_P1;HPM_P2
2021/11/10 00:02:02;;;;;;;27.10;9.10;;;;;;;-2.50;71.75;101490.61;1640365;86;21164;-65
2021/11/10 00:04:29;;;;;;;21.65;9.43;;;;;;;-2.45;71.59;101495.44;1609381;87;21519;-66
2021/11/10 00:06:55;;;;;;;28.95;10.48;;;;;;;-2.42;71.52;101494.25;1637494;87;21166;-65
2021/11/10 00:09:23;;;;;;;28.65;9.50;;;;;;;-2.38;71.53;101500.44;1637825;86;21056;-65
2021/11/10 00:11:49;;;;;;;21.42;8.98;;;;;;;-2.36;71.44;101507.00;1609764;87;21587;-65
2021/11/10 00:14:17;;;;;;;21.62;9.63;;;;;;;-2.35;71.35;101508.17;1609595;87;21032;-66
2021/11/10 00:16:44;;;;;;;32.48;9.68;;;;;;;-2.33;71.24;101506.63;1637527;86;21028;-66
2021/11/10 00:19:13;;;;;;;28.57;9.80;;;;;;;-2.34;71.17;101505.78;1603921;88;21067;-66
2021/11/10 00:21:41;;;;;;;26.62;10.10;;;;;;;-2.35;71.03;101514.07;1630356;88;21031;-64
2021/11/10 00:24:09;;;;;;;25.60;9.63;;;;;;;-2.36;70.93;101515.95;1630555;87;21533;-66
2021/11/10 00:26:35;;;;;;;21.27;9.23;;;;;;;-2.35;70.81;101528.93;1627172;88;21548;-65
2021/11/10 00:29:02;;;;;;;30.17;9.68;;;;;;;-2.39;70.70;101527.10;1628094;88;21134;-66
2021/11/10 00:31:29;;;;;;;26.75;9.65;;;;;;;-2.42;70.81;101532.88;1604293;88;21623;-64
2021/11/10 00:33:59;;;;;;;35.17;11.45;;;;;;;-2.47;70.85;101522.64;1630326;88;21077;-64
2021/11/10 00:36:25;;;;;;;22.40;10.13;;;;;;;-2.47;70.87;101530.73;1679072;85;21219;-64
2021/11/10 00:38:51;;;;;;;27.25;10.10;;;;;;;-2.47;70.98;101533.94;1679592;85;21040;-64
2021/11/10 00:41:22;;;;;;;27.82;12.40;;;;;;;-2.47;70.98;101536.64;1672217;85;22057;-65
2021/11/10 00:43:47;;;;;;;32.30;13.83;;;;;;;-2.47;71.04;101541.53;1677801;85;21082;-64
2021/11/10 00:46:15;;;;;;;43.87;15.40;;;;;;;-2.50;70.98;101538.36;1676075;85;21775;-65
2021/11/10 00:48:45;;;;;;;48.95;15.68;;;;;;;-2.52;70.99;101541.25;1679416;85;21043;-66
2021/11/10 00:51:13;;;;;;;45.73;17.62;;;;;;;-2.57;71.04;101549.05;1679208;85;21087;-64
2021/11/10 00:53:39;;;;;;;46.73;19.37;;;;;;;-2.67;71.20;101542.56;1679418;85;21079;-66
2021/11/10 00:56:06;;;;;;;45.08;18.42;;;;;;;-2.81;71.49;101546.88;1679431;85;21593;-66
2021/11/10 00:58:33;;;;;;;47.53;20.15;;;;;;;-2.89;71.85;101542.91;1678982;85;21099;-65
2021/11/10 01:01:00;;;;;;;51.98;19.62;;;;;;;-2.89;72.19;101533.45;1679613;85;21248;-64
2021/11/10 01:03:28;;;;;;;48.33;19.75;;;;;;;-2.85;72.31;101533.44;1679042;85;21051;-65
2021/11/10 01:05:56;;;;;;;60.45;20.85;;;;;;;-2.81;72.20;101524.80;1676012;85;21012;-64
2021/11/10 01:08:24;;;;;;;49.85;19.30;;;;;;;-2.75;72.10;101537.23;1679717;85;21115;-64
2021/11/10 01:10:55;;;;;;;43.17;17.62;;;;;;;-2.79;72.03;101531.86;1680304;85;21219;-64
2021/11/10 01:13:25;;;;;;;58.05;19.00;;;;;;;-2.84;72.20;101529.20;1679104;85;21080;-66
2021/11/10 01:15:53;;;;;;;48.95;20.10;;;;;;;-2.82;72.22;101527.67;1679728;85;21056;-66
2021/11/10 01:18:22;;;;;;;56.73;20.57;;;;;;;-2.81;72.18;101536.09;1692753;84;21030;-66
2021/11/10 01:20:49;;;;;;;49.18;19.10;;;;;;;-2.86;72.15;101550.13;1656808;85;21168;-66
2021/11/10 01:23:16;;;;;;;53.40;20.72;;;;;;;-3.01;72.33;101555.47;1671900;84;21110;-66
2021/11/10 01:25:43;;;;;;;48.68;19.37;;;;;;;-3.08;72.58;101560.75;1676152;84;21459;-66
2021/11/10 01:28:11;;;;;;;56.10;19.92;;;;;;;-3.08;72.79;101568.84;1699529;83;21081;-67
2021/11/10 01:30:40;;;;;;;47.75;19.27;;;;;;;-3.05;72.76;101574.38;1702109;84;21558;-66
2021/11/10 01:33:07;;;;;;;53.55;22.35;;;;;;;-3.03;72.71;101587.18;1702362;84;21043;-66
2021/11/10 01:35:33;;;;;;;53.38;22.32;;;;;;;-3.02;72.59;101591.55;1702214;84;21504;-65
2021/11/10 01:38:01;;;;;;;47.27;21.60;;;;;;;-3.04;72.55;101585.52;1676224;84;21069;-65
2021/11/10 01:40:31;;;;;;;45.92;19.77;;;;;;;-3.02;72.74;101580.75;1699554;83;21460;-65
2021/11/10 01:43:05;;;;;;;49.15;19.25;;;;;;;-2.98;72.85;101579.89;1653322;84;20967;-66
2021/11/10 01:45:29;;;;;;;34.30;14.68;;;;;;;-2.96;72.63;101579.21;1675539;84;21086;-67
2021/11/10 01:47:56;;;;;;;32.63;14.58;;;;;;;-2.96;72.60;101561.67;1702590;84;21082;-64
2021/11/10 01:50:23;;;;;;;31.23;14.07;;;;;;;-2.93;72.61;101561.30;1676512;84;22009;-63
2021/11/10 01:52:51;;;;;;;34.98;14.13;;;;;;;-2.94;72.44;101562.34;1675942;84;21074;-65
2021/11/10 01:55:23;;;;;;;28.75;13.95;;;;;;;-3.04;72.36;101562.58;1666650;81;21044;-65
2021/11/10 01:57:50;;;;;;;43.98;16.45;;;;;;;-3.11;72.50;101561.11;1666926;85;21564;-65
2021/11/10 02:00:28;;;;;;;39.45;16.45;;;;;;;-3.13;72.72;101554.20;1661291;85;21008;-63
2021/11/10 02:02:57;;;;;;;40.17;17.10;;;;;;;-3.11;72.81;101553.02;1670796;84;21039;-64
2021/11/10 02:05:26;;;;;;;35.70;16.73;;;;;;;-3.08;72.67;101545.06;1686066;83;21050;-62
2021/11/10 02:07:52;;;;;;;41.68;17.92;;;;;;;-3.08;72.52;101540.52;1681857;84;21056;-65
2021/11/10 02:10:24;;;;;;;46.35;19.82;;;;;;;-3.10;72.38;101553.33;1675426;84;21064;-64
2021/11/10 02:12:56;;;;;;;50.17;20.83;;;;;;;-3.14;72.42;101555.23;1679635;84;21077;-65
2021/11/10 02:15:24;;;;;;;49.00;20.75;;;;;;;-3.17;72.62;101564.50;1675924;84;21835;-66
2021/11/10 02:17:54;;;;;;;45.85;20.35;;;;;;;-3.15;72.75;101567.86;1681845;84;21028;-65
2021/11/10 02:20:23;;;;;;;46.28;19.87;;;;;;;-3.12;72.82;101576.94;1681162;84;21025;-64
2021/11/10 02:22:52;;;;;;;47.67;19.50;;;;;;;-3.09;72.88;101578.46;1681072;84;21571;-65
2021/11/10 02:25:19;;;;;;;36.20;17.25;;;;;;;-3.06;73.03;101568.16;1683325;84;21525;-65
2021/11/10 02:27:46;;;;;;;43.78;18.07;;;;;;;-2.99;73.01;101568.78;1642309;85;21573;-64
2021/11/10 02:30:18;;;;;;;41.30;16.97;;;;;;;-2.99;72.84;101573.68;1645843;84;21009;-65
2021/11/10 02:32:49;;;;;;;27.15;13.00;;;;;;;-3.04;72.89;101586.86;1676120;84;21056;-64
2021/11/10 02:35:22;;;;;;;42.08;17.82;;;;;;;-3.10;72.99;101590.25;1656138;85;21021;-63
2021/11/10 02:37:53;;;;;;;43.58;18.45;;;;;;;-3.18;73.13;101592.50;1674536;85;20990;-64
2021/11/10 02:40:20;;;;;;;46.00;19.85;;;;;;;-3.19;73.47;101590.30;1677170;84;22037;-65
2021/11/10 02:42:47;;;;;;;50.52;19.85;;;;;;;-3.10;73.77;101587.55;1677353;84;21005;-64
2021/11/10 02:45:14;;;;;;;72.12;29.90;;;;;;;-3.01;73.94;101592.39;1681190;83;21035;-65
2021/11/10 02:47:45;;;;;;;96.95;38.92;;;;;;;-2.92;74.00;101594.53;1680552;84;21010;-65
2021/11/10 02:50:14;;;;;;;166.35;65.62;;;;;;;-2.85;73.89;101591.46;1680036;84;21079;-64
2021/11/10 02:52:42;;;;;;;346.50;127.42;;;;;;;-2.78;73.93;101584.30;1678956;84;21056;-65
2021/11/10 02:55:08;;;;;;;384.85;137.97;;;;;;;-2.72;74.00;101589.00;1719466;82;21508;-64
2021/11/10 02:57:37;;;;;;;306.20;119.42;;;;;;;-2.65;73.95;101589.62;1694331;83;21185;-63
2021/11/10 03:00:06;;;;;;;349.90;129.07;;;;;;;-2.65;73.71;101598.56;1702255;83;21132;-64
2021/11/10 03:02:37;;;;;;;290.25;103.25;;;;;;;-2.69;73.70;101596.73;1691904;83;21023;-65
2021/11/10 03:05:06;;;;;;;247.12;89.58;;;;;;;-2.67;73.90;101591.65;1715121;83;21227;-65
2021/11/10 03:07:33;;;;;;;217.68;81.75;;;;;;;-2.65;73.85;101585.57;1709619;83;21082;-63
2021/11/10 03:10:01;;;;;;;156.45;61.05;;;;;;;-2.65;73.92;101585.57;1700873;83;21544;-64
2021/11/10 03:12:28;;;;;;;118.60;46.65;;;;;;;-2.60;73.93;101590.77;1682315;83;20997;-65
2021/11/10 03:14:55;;;;;;;88.47;34.43;;;;;;;-2.57;73.75;101594.95;1696315;83;21587;-64
2021/11/10 03:17:21;;;;;;;64.67;27.65;;;;;;;-2.56;73.57;101612.84;1682010;83;21742;-63
2021/11/10 03:19:49;;;;;;;67.67;26.02;;;;;;;-2.54;73.51;101616.19;1709805;83;21039;-65
2021/11/10 03:22:17;;;;;;;69.12;25.32;;;;;;;-2.53;73.50;101614.33;1705360;83;21042;-63
2021/11/10 03:24:49;;;;;;;59.88;24.98;;;;;;;-2.53;73.33;101624.63;1710364;83;21710;-64
2021/11/10 03:27:18;;;;;;;59.93;24.52;;;;;;;-2.53;73.20;101626.48;1703075;83;21008;-64
2021/11/10 03:29:50;;;;;;;63.35;25.25;;;;;;;-2.54;73.20;101614.02;1697124;83;21144;-65
2021/11/10 03:32:14;;;;;;;62.25;26.35;;;;;;;-2.54;73.20;101605.38;1682120;83;21586;-64
2021/11/10 03:34:40;;;;;;;67.58;24.72;;;;;;;-2.54;73.13;101611.31;1708290;83;21512;-63
2021/11/10 03:37:08;;;;;;;62.17;26.02;;;;;;;-2.60;73.06;101606.12;1701533;83;21016;-65
2021/11/10 03:39:35;;;;;;;73.78;25.80;;;;;;;-2.62;73.25;101600.90;1696958;83;21512;-63
2021/11/10 03:42:02;;;;;;;68.02;26.75;;;;;;;-2.60;73.26;101607.47;1708731;83;21147;-64
2021/11/10 03:44:30;;;;;;;64.30;23.95;;;;;;;-2.59;73.37;101599.18;1704508;83;21156;-65
2021/11/10 03:46:58;;;;;;;53.30;21.68;;;;;;;-2.55;73.48;101601.02;1706151;83;21522;-64
2021/11/10 03:49:25;;;;;;;55.73;20.30;;;;;;;-2.54;73.33;101594.58;1701809;83;21048;-65
2021/11/10 03:51:52;;;;;;;49.35;19.92;;;;;;;-2.51;73.35;101601.50;1682900;83;21064;-65
2021/11/10 03:54:20;;;;;;;53.33;20.40;;;;;;;-2.51;73.25;101601.00;1678269;83;21447;-65
2021/11/10 03:56:48;;;;;;;37.90;17.10;;;;;;;-2.51;73.18;101600.14;1705938;83;21099;-65
2021/11/10 03:59:14;;;;;;;46.68;17.17;;;;;;;-2.52;73.12;101596.59;1680436;84;21046;-65
2021/11/10 04:01:44;;;;;;;38.88;15.88;;;;;;;-2.52;72.98;101607.90;1683585;84;21054;-65
2021/11/10 04:04:11;;;;;;;37.78;15.50;;;;;;;-2.55;72.90;101602.37;1675719;84;21093;-65
2021/11/10 04:06:39;;;;;;;38.53;15.40;;;;;;;-2.58;72.79;101610.30;1668486;84;21076;-65
2021/11/10 04:09:06;;;;;;;39.13;17.23;;;;;;;-2.67;72.60;101601.95;1667593;84;21466;-65
2021/11/10 04:11:35;;;;;;;37.95;16.50;;;;;;;-2.74;72.77;101608.58;1696204;83;21079;-65
2021/11/10 04:14:04;;;;;;;40.05;17.75;;;;;;;-2.77;72.86;101614.34;1694754;83;22028;-65
2021/11/10 04:16:33;;;;;;;40.58;16.73;;;;;;;-2.78;72.88;101625.32;1693047;83;21032;-64
2021/11/10 04:19:00;;;;;;;37.45;16.65;;;;;;;-2.79;72.90;101621.77;1698037;83;22101;-65
2021/11/10 04:21:31;;;;;;;37.70;18.48;;;;;;;-2.80;72.86;101624.16;1696338;83;21038;-65
2021/11/10 04:24:02;;;;;;;44.98;17.40;;;;;;;-2.83;72.77;101619.94;1685936;84;21104;-64
2021/11/10 04:26:36;;;;;;;46.02;17.90;;;;;;;-2.86;72.81;101624.84;1692705;83;21016;-65
2021/11/10 04:29:07;;;;;;;38.48;17.95;;;;;;;-2.88;72.90;101621.51;1694397;84;21507;-65
2021/11/10 04:31:36;;;;;;;36.75;16.65;;;;;;;-2.87;73.13;101626.72;1693009;84;21073;-64
2021/11/10 04:34:05;;;;;;;33.73;17.12;;;;;;;-2.85;73.32;101617.09;1661464;84;21009;-65
2021/11/10 04:36:33;;;;;;;39.42;17.20;;;;;;;-2.81;73.41;101622.45;1687566;83;21016;-63
2021/11/10 04:39:00;;;;;;;39.63;17.67;;;;;;;-2.79;73.43;101621.77;1665013;84;21033;-66
2021/11/10 04:41:27;;;;;;;40.38;19.05;;;;;;;-2.75;73.47;101615.01;1695330;83;21146;-65
2021/11/10 04:43:58;;;;;;;51.70;18.02;;;;;;;-2.72;73.28;101615.14;1686246;84;21014;-65
2021/11/10 04:48:54;;;;;;;37.48;17.30;;;;;;;-2.65;73.17;101620.66;1695939;83;21520;-64
2021/11/10 04:51:24;;;;;;;36.73;15.40;;;;;;;-2.62;72.99;101621.65;1696058;83;21079;-65
2021/11/10 04:53:50;;;;;;;36.20;15.45;;;;;;;-2.63;72.81;101615.94;1688892;83;21143;-64
2021/11/10 04:56:20;;;;;;;37.13;13.58;;;;;;;-2.65;72.70;101613.41;1699728;83;21517;-65
2021/11/10 04:58:45;;;;;;;28.23;13.78;;;;;;;-2.64;72.77;101607.48;1684048;84;21020;-65
2021/11/10 05:01:18;;;;;;;26.12;14.30;;;;;;;-2.63;72.80;101607.33;1699952;83;21013;-66
2021/11/10 05:03:45;;;;;;;35.75;16.85;;;;;;;-2.63;72.79;101608.68;1715507;82;21119;-65
2021/11/10 05:06:12;;;;;;;75.78;33.20;;;;;;;-2.60;72.90;101608.81;1713620;82;21023;-65
2021/11/10 05:08:42;;;;;;;79.95;37.00;;;;;;;-2.59;72.88;101599.69;1694704;83;21143;-65
2021/11/10 05:11:12;;;;;;;63.83;30.10;;;;;;;-2.54;72.94;101601.33;1699175;84;21044;-65
2021/11/10 05:13:39;;;;;;;59.00;24.63;;;;;;;-2.51;72.78;101606.90;1685250;84;21016;-63
2021/11/10 05:16:06;;;;;;;55.70;24.10;;;;;;;-2.55;72.50;101614.52;1697716;83;20996;-66
2021/11/10 05:18:35;;;;;;;54.75;22.75;;;;;;;-2.63;72.45;101611.38;1697791;83;21069;-64
2021/11/10 05:21:02;;;;;;;49.35;21.12;;;;;;;-2.66;72.52;101625.21;1683665;84;21052;-65
2021/11/10 05:23:29;;;;;;;45.95;19.23;;;;;;;-2.70;72.49;101628.81;1698221;83;21484;-64
2021/11/10 05:25:57;;;;;;;38.98;16.62;;;;;;;-2.73;72.50;101633.72;1684763;84;21623;-65
2021/11/10 05:28:25;;;;;;;28.60;12.65;;;;;;;-2.74;72.57;101636.07;1689795;84;21495;-65
2021/11/10 05:30:54;;;;;;;23.75;11.85;;;;;;;-2.74;72.64;101641.47;1689219;84;21020;-65
2021/11/10 05:33:22;;;;;;;32.05;12.82;;;;;;;-2.75;72.58;101652.80;1678158;84;21268;-65
2021/11/10 05:35:49;;;;;;;23.65;11.85;;;;;;;-2.75;72.55;101665.44;1672821;83;21004;-65
2021/11/10 05:38:15;;;;;;;26.85;12.33;;;;;;;-2.80;72.45;101665.98;1713453;82;21046;-65
2021/11/10 05:40:41;;;;;;;27.42;12.20;;;;;;;-2.83;72.70;101662.27;1713277;82;20988;-65
2021/11/10 05:43:10;;;;;;;32.30;14.60;;;;;;;-2.81;72.75;101671.03;1690809;82;21095;-64
2021/11/10 05:45:37;;;;;;;35.90;13.83;;;;;;;-2.77;72.93;101668.82;1699274;83;22051;-65
2021/11/10 05:48:04;;;;;;;38.28;14.38;;;;;;;-2.68;73.16;101661.02;1716718;82;20971;-64
2021/11/10 05:50:32;;;;;;;40.30;15.05;;;;;;;-2.58;73.32;101661.59;1692416;83;21161;-64
2021/11/10 05:53:00;;;;;;;42.95;17.80;;;;;;;-2.43;73.49;101666.23;1690456;82;21515;-65
2021/11/10 05:55:28;;;;;;;45.60;19.40;;;;;;;-2.28;73.58;101673.04;1706697;83;21013;-65
2021/11/10 05:57:54;;;;;;;78.35;29.25;;;;;;;-2.13;73.62;101674.97;1695230;84;21481;-64
2021/11/10 06:00:21;;;;;;;97.12;33.67;;;;;;;-1.99;73.52;101668.74;1691252;83;21076;-64
2021/11/10 06:02:49;;;;;;;90.38;32.85;;;;;;;-1.86;73.24;101665.93;1699434;83;21274;-64
2021/11/10 06:05:17;;;;;;;92.82;33.67;;;;;;;-1.78;73.05;101668.55;1646781;83;21013;-65
2021/11/10 06:07:45;;;;;;;88.30;33.85;;;;;;;-1.71;72.80;101680.28;1696881;83;21037;-65
2021/11/10 06:10:14;;;;;;;103.05;39.60;;;;;;;-1.66;72.62;101678.91;1674742;84;21198;-64
2021/11/10 06:12:40;;;;;;;76.97;30.02;;;;;;;-1.65;72.52;101669.25;1674902;84;21085;-64
2021/11/10 06:15:09;;;;;;;67.85;27.15;;;;;;;-1.59;72.47;101666.33;1700793;83;21001;-65
2021/11/10 06:17:36;;;;;;;64.20;25.52;;;;;;;-1.63;72.27;101667.20;1704811;83;21040;-65
2021/11/10 06:20:07;;;;;;;79.37;30.92;;;;;;;-1.60;72.39;101669.53;1706345;83;21016;-64
2021/11/10 06:22:35;;;;;;;81.63;35.15;;;;;;;-1.56;72.24;101668.66;1711649;83;21792;-64
2021/11/10 06:25:04;;;;;;;93.37;38.30;;;;;;;-1.51;72.25;101671.64;1708561;83;21063;-65
2021/11/10 06:27:33;;;;;;;95.30;36.25;;;;;;;-1.45;72.20;101670.04;1711564;83;21031;-65
2021/11/10 06:30:00;;;;;;;78.70;34.43;;;;;;;-1.39;72.01;101676.58;1721047;82;21106;-65
2021/11/10 06:32:27;;;;;;;83.25;34.58;;;;;;;-1.35;71.93;101673.84;1729300;82;21540;-65
2021/11/10 06:34:53;;;;;;;78.72;31.62;;;;;;;-1.29;71.72;101678.48;1707802;83;21110;-62
2021/11/10 06:37:20;;;;;;;72.47;31.70;;;;;;;-1.21;71.76;101676.72;1705177;82;21003;-62
2021/11/10 06:39:46;;;;;;;56.60;23.98;;;;;;;-1.14;71.57;101674.92;1710128;83;21496;-64
2021/11/10 06:42:12;;;;;;;48.35;21.87;;;;;;;-1.07;71.39;101675.00;1710836;83;21084;-64
2021/11/10 06:44:39;;;;;;;50.67;20.45;;;;;;;-1.02;71.36;101677.47;1708678;83;21599;-64
2021/11/10 06:47:05;;;;;;;44.55;19.10;;;;;;;-0.96;71.20;101672.33;1706539;83;21159;-64
2021/11/10 06:49:34;;;;;;;52.48;23.42;;;;;;;-0.92;70.95;101673.64;1711976;83;21015;-64
2021/11/10 06:52:02;;;;;;;49.10;22.48;;;;;;;-0.88;70.87;101669.52;1710884;83;21054;-64
2021/11/10 06:54:31;;;;;;;51.20;22.87;;;;;;;-0.82;70.71;101672.80;1712206;83;21008;-64
2021/11/10 06:57:01;;;;;;;67.78;29.32;;;;;;;-0.76;70.67;101676.12;1668502;83;21198;-64
2021/11/10 06:59:32;;;;;;;59.37;26.37;;;;;;;-0.68;70.48;101678.39;1699550;83;21011;-64
2021/11/10 07:02:00;;;;;;;56.30;26.45;;;;;;;-0.59;70.39;101678.58;1668513;83;21553;-63
2021/11/10 07:04:27;;;;;;;50.40;21.85;;;;;;;-0.55;70.09;101671.77;1702494;83;21516;-63
2021/11/10 07:06:54;;;;;;;45.83;19.20;;;;;;;-0.52;70.06;101672.72;1707942;83;21016;-64
2021/11/10 07:09:21;;;;;;;38.65;15.85;;;;;;;-0.47;69.94;101669.94;1700888;83;21095;-64
2021/11/10 07:11:48;;;;;;;38.58;16.85;;;;;;;-0.45;69.70;101664.66;1702284;83;21094;-64
2021/11/10 07:14:16;;;;;;;37.00;14.95;;;;;;;-0.41;69.67;101661.05;1678737;83;21008;-64
2021/11/10 07:16:42;;;;;;;35.78;14.03;;;;;;;-0.37;69.60;101654.20;1703482;83;21080;-64
2021/11/10 07:19:09;;;;;;;24.72;13.20;;;;;;;-0.33;69.37;101654.66;1672512;83;20977;-63
2021/11/10 07:21:40;;;;;;;32.03;14.15;;;;;;;-0.27;69.48;101660.13;1702019;83;21020;-64
2021/11/10 07:24:08;;;;;;;32.73;13.28;;;;;;;-0.17;69.57;101657.08;1698449;83;21969;-63
2021/11/10 07:26:35;;;;;;;25.70;11.75;;;;;;;-0.07;69.49;101659.98;1706212;83;21095;-64
2021/11/10 07:29:01;;;;;;;22.62;10.78;;;;;;;0.05;69.42;101653.52;1705554;83;21087;-65
2021/11/10 07:31:30;;;;;;;29.15;10.82;;;;;;;0.18;69.08;101655.47;1691589;83;21060;-64
2021/11/10 07:33:59;;;;;;;22.10;10.40;;;;;;;0.29;68.62;101647.31;1701148;83;21026;-64
2021/11/10 07:36:28;;;;;;;29.02;11.25;;;;;;;0.39;68.30;101645.09;1667168;83;21263;-66
2021/11/10 07:38:57;;;;;;;27.75;10.78;;;;;;;0.44;68.09;101643.98;1700097;83;21044;-65
2021/11/10 07:41:28;;;;;;;19.10;9.53;;;;;;;0.58;68.03;101635.91;1697578;83;21004;-65
2021/11/10 07:43:54;;;;;;;21.27;10.78;;;;;;;0.73;67.80;101629.80;1721721;82;20984;-66
2021/11/10 07:46:22;;;;;;;27.22;11.18;;;;;;;0.89;67.08;101619.63;1721317;82;21488;-65
2021/11/10 07:48:49;;;;;;;23.90;12.23;;;;;;;0.86;66.60;101628.19;1722877;82;21152;-65
2021/11/10 07:51:17;;;;;;;24.92;10.72;;;;;;;0.88;66.37;101626.63;1702394;83;21123;-65
2021/11/10 07:53:44;;;;;;;21.27;10.78;;;;;;;0.93;66.08;101631.77;1699245;83;21078;-65
2021/11/10 07:56:11;;;;;;;26.27;8.60;;;;;;;0.96;66.02;101638.14;1661531;85;21812;-64
2021/11/10 07:58:38;;;;;;;14.70;7.47;;;;;;;1.05;65.82;101643.39;1685529;84;21050;-66
2021/11/10 08:01:06;;;;;;;18.23;9.10;;;;;;;1.10;65.35;101639.55;1679853;84;22342;-64
2021/11/10 08:03:34;;;;;;;24.12;11.53;;;;;;;1.16;65.17;101640.08;1648154;84;21053;-64
2021/11/10 08:06:03;;;;;;;23.35;10.60;;;;;;;1.25;64.89;101648.03;1687635;84;21012;-63
2021/11/10 08:08:29;;;;;;;36.00;13.98;;;;;;;1.29;64.51;101661.02;1674747;85;21044;-64
2021/11/10 08:11:00;;;;;;;36.55;14.35;;;;;;;1.36;64.61;101665.62;1679090;84;21119;-63
2021/11/10 08:13:28;;;;;;;31.30;12.93;;;;;;;1.42;64.30;101664.28;1676711;85;21049;-63
2021/11/10 08:15:56;;;;;;;23.32;9.90;;;;;;;1.45;64.26;101664.41;1679893;85;21729;-63
2021/11/10 08:18:23;;;;;;;17.62;9.08;;;;;;;1.51;64.26;101667.64;1679082;85;21056;-64
2021/11/10 08:20:49;;;;;;;21.82;9.20;;;;;;;1.61;63.55;101663.16;1690164;84;21616;-65
2021/11/10 08:23:20;;;;;;;17.70;9.38;;;;;;;1.65;63.13;101663.59;1689180;84;21111;-63
2021/11/10 08:25:48;;;;;;;17.25;9.98;;;;;;;1.73;63.07;101660.66;1683913;84;22321;-63
2021/11/10 08:28:15;;;;;;;18.50;9.00;;;;;;;1.86;62.77;101665.26;1680285;84;21059;-65
2021/11/10 08:30:44;;;;;;;19.90;9.43;;;;;;;1.96;62.27;101666.23;1676835;84;21046;-63
2021/11/10 08:33:11;;;;;;;20.17;8.43;;;;;;;1.99;61.78;101669.03;1651182;84;21016;-64
2021/11/10 09:29:59;;;;;;;23.47;12.13;;;;;;;3.46;54.02;101646.14;1866403;76;22020;-62
2021/11/10 09:32:27;;;;;;;21.62;10.82;;;;;;;3.41;53.87;101637.27;1834555;78;20907;-60
2021/11/10 09:34:53;;;;;;;21.30;10.40;;;;;;;3.55;53.69;101633.89;1834645;77;21996;-61
2021/11/10 09:37:20;;;;;;;21.48;9.65;;;;;;;3.74;52.95;101635.33;1832687;77;21047;-62
2021/11/10 09:39:46;;;;;;;16.70;9.38;;;;;;;3.90;51.76;101638.05;1833876;78;20879;-61
2021/11/10 09:42:13;;;;;;;15.08;7.58;;;;;;;4.03;51.20;101632.98;1834701;78;20913;-60
2021/11/10 09:44:40;;;;;;;21.68;11.25;;;;;;;4.14;49.91;101628.70;1819952;78;20956;-60
2021/11/10 09:47:08;;;;;;;24.07;11.33;;;;;;;4.24;49.79;101633.11;1791579;78;21199;-63
2021/11/10 09:49:35;;;;;;;18.48;10.38;;;;;;;4.32;49.87;101643.41;1791800;78;20826;-63
2021/11/10 09:52:02;;;;;;;24.37;11.33;;;;;;;4.37;50.35;101638.95;1821313;78;21467;-62
2021/11/10 09:54:28;;;;;;;26.37;12.45;;;;;;;4.41;49.31;101641.23;1821253;78;20873;-61
2021/11/10 09:56:55;;;;;;;25.35;12.53;;;;;;;4.28;48.42;101640.33;1821158;78;20917;-61
2021/11/10 09:59:22;;;;;;;20.68;11.75;;;;;;;4.23;48.46;101642.89;1803555;78;21512;-63
2021/11/10 10:01:48;;;;;;;22.73;12.03;;;;;;;4.23;48.74;101645.07;1841495;78;20851;-62
2021/11/10 10:04:15;;;;;;;26.85;12.82;;;;;;;4.22;48.81;101635.23;1841651;78;20885;-61
2021/11/10 10:06:41;;;;;;;35.15;17.20;;;;;;;4.31;49.29;101630.31;1790803;80;21517;-61
2021/11/10 10:09:08;;;;;;;36.58;15.00;;;;;;;4.50;49.19;101639.33;1757819;81;21041;-61
2021/11/10 10:11:34;;;;;;;28.62;12.65;;;;;;;4.62;48.56;101623.02;1756521;81;21654;-61
2021/11/10 10:14:01;;;;;;;26.17;13.50;;;;;;;4.72;48.29;101627.13;1780582;80;21071;-60
2021/11/10 10:16:29;;;;;;;24.85;11.97;;;;;;;4.79;47.45;101628.41;1761561;80;21486;-60
2021/11/10 10:19:12;;;;;;;21.33;10.35;;;;;;;4.73;46.78;101628.78;1728757;82;21042;-60
2021/11/10 10:21:40;;;;;;;22.17;10.85;;;;;;;4.58;46.72;101631.38;1688960;83;21534;-59
2021/11/10 10:24:08;;;;;;;21.55;10.85;;;;;;;4.47;46.89;101622.59;1716858;83;21152;-60
2021/11/10 10:26:35;;;;;;;17.70;9.40;;;;;;;4.46;47.05;101614.08;1718069;83;20989;-60
2021/11/10 10:29:10;;;;;;;20.72;10.15;;;;;;;4.45;47.27;101608.33;1711087;83;21048;-61
2021/11/10 10:31:38;;;;;;;19.17;9.73;;;;;;;4.48;47.06;101605.14;1703205;84;20933;-60
2021/11/10 10:34:10;;;;;;;20.77;8.78;;;;;;;4.55;46.93;101602.33;1703583;84;21029;-61
2021/11/10 10:36:39;;;;;;;19.07;8.78;;;;;;;4.58;46.41;101600.50;1703421;84;21136;-61
2021/11/10 10:39:16;;;;;;;20.60;9.95;;;;;;;4.53;46.55;101593.52;1703815;84;20973;-61
2021/11/10 10:41:45;;;;;;;16.65;9.93;;;;;;;4.48;46.80;101596.95;1702228;84;21069;-61
2021/11/10 10:44:14;;;;;;;14.93;8.83;;;;;;;4.47;46.70;101598.02;1703536;84;20997;-61
2021/11/10 10:46:46;;;;;;;17.75;8.73;;;;;;;4.47;46.92;101600.75;1703393;84;21025;-61
2021/11/10 10:49:23;;;;;;;17.20;8.93;;;;;;;4.53;46.85;101601.72;1703742;82;21114;-60
2021/11/10 10:51:55;;;;;;;15.38;7.45;;;;;;;4.52;46.25;101589.14;1703360;84;20997;-60
2021/11/10 10:54:30;;;;;;;17.25;8.65;;;;;;;4.45;46.09;101588.67;1675209;84;21033;-60
2021/11/10 10:56:59;;;;;;;19.77;8.93;;;;;;;4.40;46.25;101587.18;1730976;82;20944;-61
2021/11/10 10:59:26;;;;;;;19.10;9.98;;;;;;;4.37;46.30;101583.00;1735992;82;20987;-59
2021/11/10 11:01:56;;;;;;;16.67;8.83;;;;;;;4.38;46.44;101592.02;1735968;82;20845;-61
2021/11/10 11:04:27;;;;;;;18.75;10.20;;;;;;;4.37;46.27;101593.07;1719852;82;20976;-60
2021/11/10 11:07:04;;;;;;;31.12;13.25;;;;;;;4.43;46.08;101589.45;1693801;83;21008;-61
2021/11/10 11:09:37;;;;;;;22.60;10.53;;;;;;;4.62;45.94;101586.16;1706557;84;21039;-60
2021/11/10 11:12:15;;;;;;;25.32;11.28;;;;;;;4.87;45.60;101583.02;1705725;84;20991;-61
2021/11/10 11:14:49;;;;;;;33.38;13.22;;;;;;;5.04;43.85;101578.27;1722338;82;21484;-59
2021/11/10 11:17:25;;;;;;;39.33;17.07;;;;;;;5.08;42.70;101580.84;1721543;82;20924;-63
2021/11/10 11:19:56;;;;;;;24.75;12.10;;;;;;;5.10;42.42;101586.36;1722830;82;20944;-61
2021/11/10 11:22:24;;;;;;;25.32;11.43;;;;;;;5.19;42.62;101592.34;1699130;82;20972;-60
2021/11/10 11:24:50;;;;;;;32.63;13.08;;;;;;;5.30;42.55;101592.61;1720290;82;21585;-60
2021/11/10 11:27:27;;;;;;;21.68;11.08;;;;;;;5.45;42.66;101586.17;1720746;82;21125;-61
2021/11/10 11:30:08;;;;;;;24.95;11.48;;;;;;;5.62;42.69;101591.47;1708419;83;20977;-62
2021/11/10 11:32:43;;;;;;;33.20;14.18;;;;;;;5.79;42.66;101584.25;1757667;81;20912;-61
2021/11/10 11:35:34;;;;;;;32.60;14.65;;;;;;;5.94;42.68;101584.30;1782987;80;21023;-60
2021/11/10 11:38:07;;;;;;;26.30;10.50;;;;;;;6.03;42.39;101587.52;1721378;82;20923;-60
2021/11/10 11:40:36;;;;;;;30.02;10.55;;;;;;;6.16;42.32;101581.82;1753520;81;22366;-60
2021/11/10 11:43:05;;;;;;;25.40;11.38;;;;;;;6.26;41.84;101582.58;1753363;81;21521;-61
2021/11/10 11:45:35;;;;;;;24.82;10.70;;;;;;;6.34;41.61;101577.28;1734320;81;21035;-62
2021/11/10 11:48:03;;;;;;;35.28;10.75;;;;;;;6.41;41.43;101578.52;1697468;82;21019;-61
2021/11/10 11:50:30;;;;;;;17.23;8.73;;;;;;;6.48;41.28;101575.64;1701489;82;21562;-59
2021/11/10 11:52:56;;;;;;;16.93;9.15;;;;;;;6.54;40.70;101576.88;1730025;82;21844;-59
2021/11/10 11:55:30;;;;;;;22.37;10.32;;;;;;;6.55;40.40;101580.45;1729403;82;21059;-59
2021/11/10 11:58:11;;;;;;;24.25;9.85;;;;;;;6.57;40.13;101582.39;1727719;82;21078;-62
2021/11/10 12:00:48;;;;;;;17.17;7.47;;;;;;;6.62;40.06;101577.58;1726004;82;21093;-61
2021/11/10 12:03:29;;;;;;;17.67;7.47;;;;;;;6.64;39.83;101582.25;1699466;82;20958;-60
2021/11/10 12:06:08;;;;;;;18.17;8.00;;;;;;;6.70;38.80;101580.75;1731161;82;21124;-61
2021/11/10 12:08:43;;;;;;;11.95;6.15;;;;;;;6.79;38.76;101575.72;1737294;82;20940;-60
2021/11/10 12:11:25;;;;;;;15.05;6.87;;;;;;;6.91;38.80;101578.41;1689400;83;21011;-61
2021/11/10 12:14:15;;;;;;;13.32;6.65;;;;;;;7.00;38.18;101577.48;1771263;78;20921;-61
2021/11/10 12:16:51;;;;;;;11.78;5.50;;;;;;;7.01;36.85;101570.91;1769427;80;20917;-62